Time;durP1;ratioP1;P1;durP2;ratioP2;P2;SDS_P1;SDS_P2;PMS_P1;PMS_P2;Temp;Humidity;BMP_temperature;BMP_pressure;BME280_temperature;BME280_humidity;BME280_pressure;Samples;Min_cycle;Max_cycle;Signal;HPM_P1;HPM_P2
2022/08/15 00:00:57;;;;;;;7.80;5.83;;;25.30;1.00;;;;;;5080250;28;20433;-73
2022/08/15 00:03:29;;;;;;;9.23;5.30;;;25.40;1.00;;;;;;5074610;28;20192;-74
2022/08/15 00:05:57;;;;;;;13.10;5.70;;;25.40;1.00;;;;;;5082155;28;20323;-74
2022/08/15 00:08:23;;;;;;;7.23;5.60;;;25.20;1.00;;;;;;5083411;28;20950;-74
2022/08/15 00:10:49;;;;;;;11.67;6.30;;;25.20;1.00;;;;;;5081595;28;20824;-74
2022/08/15 00:13:28;;;;;;;10.77;5.30;;;25.10;1.00;;;;;;5075637;28;20540;-74
2022/08/15 00:15:55;;;;;;;11.77;6.20;;;25.20;1.00;;;;;;5084663;28;20170;-74
2022/08/15 00:18:24;;;;;;;13.20;6.20;;;25.40;1.00;;;;;;5085254;28;20433;-74
2022/08/15 00:20:50;;;;;;;8.60;5.20;;;25.20;1.00;;;;;;5082149;28;20461;-74
2022/08/15 00:23:18;;;;;;;10.23;5.43;;;25.30;1.00;;;;;;5086543;28;20453;-74
2022/08/15 00:25:49;;;;;;;12.53;5.17;;;25.10;1.00;;;;;;5075039;28;20441;-74
2022/08/15 00:28:15;;;;;;;13.00;6.17;;;25.10;1.00;;;;;;5084396;28;20868;-74
2022/08/15 00:30:44;;;;;;;8.17;5.23;;;25.10;1.00;;;;;;5087841;28;20464;-74
2022/08/15 00:33:10;;;;;;;8.27;5.70;;;25.00;1.00;;;;;;5092614;28;20194;-74
2022/08/15 00:35:36;;;;;;;7.80;5.67;;;25.00;1.00;;;;;;5099267;28;20452;-72
2022/08/15 00:38:29;;;;;;;10.20;5.77;;;25.00;1.00;;;;;;5090042;28;20710;-74
2022/08/15 00:43:49;;;;;;;9.10;5.20;;;25.00;1.00;;;;;;5081529;28;20519;-75
2022/08/15 00:46:15;;;;;;;7.70;5.27;;;25.00;1.00;;;;;;5084539;28;20744;-74
2022/08/15 00:48:41;;;;;;;9.43;5.33;;;24.90;1.00;;;;;;5082315;28;20469;-74
2022/08/15 00:51:26;;;;;;;8.93;4.73;;;25.00;1.00;;;;;;5078962;28;20830;-74
2022/08/15 00:53:57;;;;;;;7.37;4.83;;;24.90;1.00;;;;;;5079989;28;20591;-73
2022/08/15 00:56:28;;;;;;;7.47;5.33;;;25.20;1.00;;;;;;5075330;28;20670;-73
2022/08/15 00:58:54;;;;;;;13.93;5.70;;;24.80;1.00;;;;;;5084926;28;20433;-74
2022/08/15 01:01:20;;;;;;;7.90;5.00;;;24.80;1.00;;;;;;5077819;28;20986;-74
2022/08/15 01:03:48;;;;;;;7.27;4.87;;;24.80;1.00;;;;;;5081173;28;20204;-75
2022/08/15 01:06:15;;;;;;;11.10;5.33;;;24.70;1.00;;;;;;5082428;28;20409;-74
2022/08/15 01:08:43;;;;;;;9.57;5.17;;;24.70;1.00;;;;;;5083357;28;20429;-74
2022/08/15 01:11:25;;;;;;;12.47;5.43;;;24.70;1.00;;;;;;5078958;28;20438;-74
2022/08/15 01:13:55;;;;;;;10.93;4.60;;;24.60;1.00;;;;;;5077927;28;20933;-74
2022/08/15 01:16:23;;;;;;;13.30;5.03;;;24.70;1.00;;;;;;5082844;28;20506;-74
2022/08/15 01:18:50;;;;;;;7.10;4.87;;;24.70;1.00;;;;;;5085886;28;20429;-74
2022/08/15 01:21:33;;;;;;;10.50;4.70;;;24.70;1.00;;;;;;5099018;28;20436;-74
2022/08/15 01:24:24;;;;;;;9.50;5.07;;;24.70;1.00;;;;;;5097116;28;20916;-73
2022/08/15 01:26:51;;;;;;;10.37;5.60;;;24.70;1.00;;;;;;5091928;28;21037;-74
2022/08/15 01:29:19;;;;;;;11.50;5.10;;;24.60;1.00;;;;;;5089930;28;20639;-74
2022/08/15 01:31:47;;;;;;;12.43;5.13;;;24.60;1.00;;;;;;5088765;28;20578;-74
2022/08/15 01:34:13;;;;;;;10.03;5.10;;;24.60;1.00;;;;;;5081848;28;20456;-74
2022/08/15 01:36:39;;;;;;;7.47;4.67;;;24.60;1.00;;;;;;5081996;28;21339;-74
2022/08/15 01:39:14;;;;;;;8.40;4.77;;;24.60;1.00;;;;;;5084988;28;20544;-74
2022/08/15 01:41:52;;;;;;;8.50;4.70;;;24.60;1.00;;;;;;5078993;28;20477;-74
2022/08/15 01:44:35;;;;;;;7.17;4.40;;;24.60;1.00;;;;;;5078330;28;20477;-74
2022/08/15 01:47:19;;;;;;;7.00;5.27;;;24.60;1.00;;;;;;5081992;28;20829;-74
2022/08/15 01:50:16;;;;;;;8.80;5.10;;;24.50;1.00;;;;;;5086313;28;20551;-74
2022/08/15 01:52:51;;;;;;;9.70;5.30;;;24.40;1.00;;;;;;5070460;28;20455;-74
2022/08/15 01:55:20;;;;;;;6.63;4.70;;;24.50;1.00;;;;;;5082699;28;20876;-74
2022/08/15 01:57:46;;;;;;;10.00;4.60;;;24.50;1.00;;;;;;5086692;28;20524;-74
2022/08/15 02:00:14;;;;;;;10.13;5.03;;;24.50;1.00;;;;;;5082889;28;20840;-75
2022/08/15 02:02:41;;;;;;;10.40;4.80;;;24.50;1.00;;;;;;5082439;28;20286;-74
2022/08/15 02:05:07;;;;;;;8.23;5.20;;;24.40;1.00;;;;;;5086579;28;20607;-74
2022/08/15 02:07:34;;;;;;;7.53;4.80;;;24.40;1.00;;;;;;5081213;28;20496;-74
2022/08/15 02:10:00;;;;;;;13.23;4.90;;;24.50;1.00;;;;;;5081729;28;20452;-74
2022/08/15 02:12:30;;;;;;;6.40;4.67;;;24.50;1.00;;;;;;5085538;28;20614;-74
2022/08/15 02:14:57;;;;;;;7.80;4.83;;;24.50;1.00;;;;;;5084555;28;20949;-74
2022/08/15 02:17:23;;;;;;;11.60;5.30;;;24.50;1.00;;;;;;5084632;28;20441;-74
2022/08/15 02:19:50;;;;;;;7.17;4.80;;;24.40;1.00;;;;;;5086303;28;20429;-73
2022/08/15 02:22:19;;;;;;;8.80;4.90;;;24.30;1.00;;;;;;5080617;28;20553;-74
2022/08/15 02:24:45;;;;;;;7.20;5.40;;;24.30;1.00;;;;;;5081893;28;20607;-74
2022/08/15 02:27:11;;;;;;;7.80;5.27;;;24.30;1.00;;;;;;5085456;28;21159;-74
2022/08/15 02:29:37;;;;;;;10.87;5.70;;;24.40;1.00;;;;;;5083863;28;20176;-74
2022/08/15 02:32:12;;;;;;;6.57;4.50;;;24.30;1.00;;;;;;5086369;28;20483;-73
2022/08/15 02:34:38;;;;;;;6.60;5.40;;;24.20;1.00;;;;;;5095956;28;20542;-73
2022/08/15 02:37:04;;;;;;;9.43;5.20;;;24.20;1.00;;;;;;5103212;28;20523;-73
2022/08/15 02:39:30;;;;;;;11.43;5.00;;;24.20;1.00;;;;;;5088917;28;20179;-74
2022/08/15 02:41:56;;;;;;;7.70;5.13;;;24.20;1.00;;;;;;5078240;28;20433;-74
2022/08/15 02:44:22;;;;;;;8.50;4.73;;;24.10;1.00;;;;;;5084880;28;20302;-74
2022/08/15 02:46:50;;;;;;;8.20;5.10;;;24.20;1.00;;;;;;5082662;28;20818;-73
2022/08/15 02:49:18;;;;;;;10.70;5.60;;;24.20;1.00;;;;;;5080623;28;20448;-73
2022/08/15 02:51:45;;;;;;;9.77;5.23;;;24.20;1.00;;;;;;5090600;28;20405;-74
2022/08/15 02:54:11;;;;;;;8.10;4.97;;;24.10;1.00;;;;;;5092711;28;20973;-74
2022/08/15 02:56:37;;;;;;;8.20;5.20;;;24.10;1.00;;;;;;5084417;28;20517;-73
2022/08/15 02:59:07;;;;;;;8.73;5.17;;;24.10;1.00;;;;;;5090383;28;20187;-74
2022/08/15 03:01:37;;;;;;;8.73;5.27;;;24.20;1.00;;;;;;5077887;28;20478;-74
2022/08/15 03:04:06;;;;;;;7.70;5.27;;;24.10;1.00;;;;;;5078402;28;20530;-75
2022/08/15 03:06:33;;;;;;;12.20;5.30;;;24.10;1.00;;;;;;5084485;28;20816;-73
2022/08/15 03:09:03;;;;;;;7.57;4.47;;;24.10;1.00;;;;;;5085838;28;20422;-73
2022/08/15 03:11:29;;;;;;;8.80;4.80;;;24.10;1.00;;;;;;5081489;28;20434;-73
2022/08/15 03:13:55;;;;;;;11.03;5.73;;;24.10;1.00;;;;;;5084439;28;20562;-74
2022/08/15 03:16:21;;;;;;;8.73;4.90;;;24.10;1.00;;;;;;5091939;28;20846;-74
2022/08/15 03:18:49;;;;;;;6.33;5.27;;;24.00;1.00;;;;;;5081548;28;20187;-73
2022/08/15 03:21:19;;;;;;;8.03;5.00;;;24.00;1.00;;;;;;5089313;28;20207;-74
2022/08/15 03:23:49;;;;;;;7.00;4.93;;;23.80;1.00;;;;;;5082251;28;20480;-74
2022/08/15 03:26:19;;;;;;;9.33;5.60;;;23.70;1.00;;;;;;5078424;28;20432;-73
2022/08/15 03:28:45;;;;;;;7.93;5.40;;;23.70;1.00;;;;;;5083613;28;20440;-73
2022/08/15 03:31:11;;;;;;;7.40;5.43;;;23.70;1.00;;;;;;5087719;28;20413;-73
2022/08/15 03:33:39;;;;;;;7.90;6.10;;;23.80;1.00;;;;;;5086553;28;20820;-73
2022/08/15 03:36:06;;;;;;;8.00;5.40;;;23.70;1.00;;;;;;5085057;28;20175;-73
2022/08/15 03:38:32;;;;;;;7.80;5.30;;;23.60;1.00;;;;;;5087821;28;20495;-73
2022/08/15 03:40:59;;;;;;;8.80;5.17;;;23.50;1.00;;;;;;5086924;28;20433;-73
2022/08/15 03:43:28;;;;;;;8.37;5.03;;;23.30;1.00;;;;;;5082454;28;20665;-73
2022/08/15 03:45:59;;;;;;;11.63;5.00;;;23.30;1.00;;;;;;5084146;28;21026;-74
2022/08/15 03:48:29;;;;;;;7.67;5.10;;;23.30;1.00;;;;;;5087111;28;20451;-74
2022/08/15 03:50:55;;;;;;;9.83;4.83;;;23.20;1.00;;;;;;5087887;28;20401;-73
2022/08/15 03:53:21;;;;;;;6.80;4.80;;;23.10;1.00;;;;;;5085922;28;20457;-73
2022/08/15 03:55:47;;;;;;;5.97;4.50;;;23.20;1.00;;;;;;5085911;28;20425;-73
2022/08/15 03:58:13;;;;;;;7.80;4.77;;;23.10;1.00;;;;;;5082903;28;20240;-73
2022/08/15 04:00:43;;;;;;;8.70;5.17;;;23.00;1.00;;;;;;5083511;28;20606;-73
2022/08/15 04:03:16;;;;;;;7.30;4.73;;;22.90;1.00;;;;;;5083139;28;20625;-74
2022/08/15 04:05:49;;;;;;;8.33;4.90;;;22.90;1.00;;;;;;5086478;28;20474;-73
2022/08/15 04:08:17;;;;;;;6.90;4.60;;;22.80;1.00;;;;;;5081138;28;20413;-73
2022/08/15 04:10:43;;;;;;;11.50;5.60;;;22.70;1.00;;;;;;5082427;28;20748;-75
2022/08/15 04:13:10;;;;;;;10.67;5.30;;;22.70;1.00;;;;;;5084218;28;21002;-74
2022/08/15 04:15:37;;;;;;;8.33;4.97;;;22.60;1.00;;;;;;5080954;28;20533;-74
2022/08/15 04:18:03;;;;;;;9.00;4.97;;;22.50;1.00;;;;;;5086073;28;20429;-74
2022/08/15 04:20:29;;;;;;;7.70;4.60;;;22.40;1.00;;;;;;5079308;28;20998;-74
2022/08/15 04:22:55;;;;;;;11.00;4.80;;;22.40;1.00;;;;;;5088644;28;20465;-74
2022/08/15 04:25:25;;;;;;;10.43;4.60;;;22.40;1.00;;;;;;5083672;28;20711;-73
2022/08/15 04:27:53;;;;;;;7.07;4.70;;;22.40;1.00;;;;;;5087878;28;20465;-73
2022/08/15 04:30:22;;;;;;;8.33;4.70;;;22.40;1.00;;;;;;5086744;28;20736;-73
2022/08/15 04:32:49;;;;;;;6.90;4.83;;;22.50;1.00;;;;;;5086043;28;20425;-73
2022/08/15 04:35:15;;;;;;;9.13;4.90;;;22.50;1.00;;;;;;5074228;28;20827;-74
2022/08/15 04:37:40;;;;;;;7.60;4.67;;;22.50;1.00;;;;;;5083725;28;20426;-74
2022/08/15 04:40:08;;;;;;;7.90;4.60;;;22.40;1.00;;;;;;5082314;28;20436;-73
2022/08/15 04:42:49;;;;;;;7.10;4.37;;;22.40;1.00;;;;;;5083526;28;20199;-73
2022/08/15 04:45:15;;;;;;;6.87;4.53;;;22.40;1.00;;;;;;5074554;28;20457;-73
2022/08/15 04:47:40;;;;;;;10.50;4.67;;;22.40;1.00;;;;;;5080054;28;20433;-73
2022/08/15 04:50:06;;;;;;;7.10;4.80;;;22.30;1.00;;;;;;5083702;28;21245;-74
2022/08/15 04:52:32;;;;;;;6.63;4.77;;;22.10;1.00;;;;;;5081828;28;20196;-74
2022/08/15 04:54:58;;;;;;;10.13;5.10;;;21.90;1.00;;;;;;5082833;28;20559;-74
2022/08/15 04:57:24;;;;;;;8.17;5.10;;;21.80;1.00;;;;;;5094141;28;20174;-74
2022/08/15 04:59:49;;;;;;;10.50;5.20;;;21.70;1.00;;;;;;5087074;28;20274;-74
2022/08/15 05:02:23;;;;;;;8.60;5.10;;;21.50;1.00;;;;;;5079435;28;20818;-74
2022/08/15 05:04:49;;;;;;;12.70;4.60;;;21.80;1.00;;;;;;5086934;28;20499;-74
2022/08/15 05:07:15;;;;;;;8.43;5.20;;;22.20;1.00;;;;;;5082598;28;20562;-73
2022/08/15 05:09:40;;;;;;;8.60;4.63;;;21.70;1.00;;;;;;5084759;28;20177;-74
2022/08/15 05:12:06;;;;;;;8.27;4.90;;;21.80;1.00;;;;;;5087751;28;20561;-73
2022/08/15 05:14:31;;;;;;;7.37;5.10;;;21.80;1.00;;;;;;5083032;28;20186;-74
2022/08/15 05:16:57;;;;;;;7.20;5.30;;;21.70;1.00;;;;;;5083144;28;20266;-73
2022/08/15 05:19:22;;;;;;;7.10;5.00;;;21.60;1.00;;;;;;5082809;28;20685;-73
2022/08/15 05:21:48;;;;;;;8.33;5.67;;;21.50;1.00;;;;;;5088184;28;20637;-73
2022/08/15 05:24:14;;;;;;;8.63;5.00;;;21.40;1.00;;;;;;5087243;28;20643;-74
2022/08/15 05:26:39;;;;;;;7.33;5.20;;;21.40;1.00;;;;;;5087065;28;20665;-74
2022/08/15 05:29:06;;;;;;;8.47;5.20;;;21.30;1.00;;;;;;5086028;28;20167;-74
2022/08/15 05:31:33;;;;;;;9.03;5.30;;;21.30;1.00;;;;;;5091392;28;20221;-74
2022/08/15 05:34:00;;;;;;;9.13;5.43;;;21.40;1.00;;;;;;5076504;28;20476;-72
2022/08/15 05:36:26;;;;;;;9.30;5.43;;;21.40;1.00;;;;;;5088493;28;20429;-74
2022/08/15 05:38:58;;;;;;;8.33;5.00;;;21.40;1.00;;;;;;5081308;28;20511;-74
2022/08/15 05:41:32;;;;;;;9.80;5.20;;;21.30;1.00;;;;;;5082817;28;21018;-74
2022/08/15 05:44:20;;;;;;;8.43;5.63;;;21.30;1.00;;;;;;5087779;28;20504;-74
2022/08/15 05:47:06;;;;;;;9.40;5.23;;;21.40;1.00;;;;;;5091397;28;20813;-74
2022/08/15 05:49:50;;;;;;;8.40;5.50;;;21.40;1.00;;;;;;5087548;28;20451;-73
2022/08/15 05:52:21;;;;;;;7.70;5.43;;;21.50;1.00;;;;;;5090976;28;20524;-74
2022/08/15 05:55:07;;;;;;;7.03;5.40;;;21.50;1.00;;;;;;5096154;28;20521;-73
2022/08/15 05:57:52;;;;;;;7.97;4.80;;;21.50;1.00;;;;;;5098609;28;20440;-74
2022/08/15 06:00:17;;;;;;;7.17;5.20;;;20.90;1.00;;;;;;5090584;28;20433;-74
2022/08/15 06:02:49;;;;;;;7.50;5.03;;;21.80;1.00;;;;;;5085308;28;20451;-74
2022/08/15 06:05:24;;;;;;;7.35;4.80;;;21.80;1.00;;;;;;5077566;28;20438;-74
2022/08/15 06:07:50;;;;;;;9.37;4.90;;;21.80;1.00;;;;;;5086079;28;20191;-78
2022/08/15 06:10:27;;;;;;;6.33;4.63;;;21.90;1.00;;;;;;5082566;28;20448;-76
2022/08/15 06:13:14;;;;;;;7.77;5.07;;;22.00;1.00;;;;;;5087572;28;20196;-76
2022/08/15 06:15:58;;;;;;;7.20;4.70;;;22.10;1.00;;;;;;5088546;28;20418;-76
2022/08/15 06:18:26;;;;;;;7.30;4.83;;;22.10;1.00;;;;;;5100856;28;20985;-76
2022/08/15 06:20:55;;;;;;;8.30;4.80;;;22.10;1.00;;;;;;5108030;28;20512;-77
2022/08/15 06:23:26;;;;;;;10.17;5.03;;;22.20;1.00;;;;;;5093754;28;20758;-78
2022/08/15 06:26:03;;;;;;;8.13;5.20;;;22.10;1.00;;;;;;5099240;28;20413;-77
2022/08/15 06:28:58;;;;;;;6.27;4.90;;;22.30;1.00;;;;;;5090484;28;20784;-78
2022/08/15 06:31:31;;;;;;;8.83;5.20;;;22.20;1.00;;;;;;5073760;28;20417;-76
2022/08/15 06:34:11;;;;;;;7.03;4.80;;;22.20;1.00;;;;;;5090586;28;20933;-77
2022/08/15 06:37:14;;;;;;;8.23;4.70;;;22.10;1.00;;;;;;5087057;28;20803;-77
2022/08/15 06:40:01;;;;;;;9.20;4.70;;;22.20;1.00;;;;;;5080736;28;20475;-78
2022/08/15 06:42:34;;;;;;;9.07;5.07;;;22.20;1.00;;;;;;5090034;28;20965;-77
2022/08/15 06:45:10;;;;;;;11.20;5.00;;;22.30;1.00;;;;;;5081453;28;20461;-77
2022/08/15 06:47:37;;;;;;;7.27;4.70;;;22.40;1.00;;;;;;5087593;28;20417;-77
2022/08/15 06:50:11;;;;;;;7.83;4.70;;;22.40;1.00;;;;;;5080219;28;20538;-77
2022/08/15 06:52:37;;;;;;;6.93;5.03;;;22.40;1.00;;;;;;5088037;28;20516;-77
2022/08/15 06:55:03;;;;;;;7.80;4.73;;;22.50;1.00;;;;;;5084130;28;20452;-77
2022/08/15 06:57:49;;;;;;;5.10;4.50;;;22.50;1.00;;;;;;5078996;28;20430;-74
2022/08/15 07:00:33;;;;;;;7.67;4.70;;;22.30;1.00;;;;;;5070854;28;21012;-75
2022/08/15 07:03:36;;;;;;;7.70;4.73;;;22.20;1.00;;;;;;5098694;28;20448;-75
2022/08/15 07:06:03;;;;;;;6.13;5.03;;;22.00;1.00;;;;;;5082975;28;20496;-75
2022/08/15 07:08:49;;;;;;;7.60;4.83;;;22.00;1.00;;;;;;5087430;28;20512;-76
2022/08/15 07:11:37;;;;;;;7.27;5.30;;;22.00;1.00;;;;;;5083658;28;20442;-75
2022/08/15 07:14:06;;;;;;;8.37;4.90;;;22.20;1.00;;;;;;5085877;28;20899;-76
2022/08/15 07:17:12;;;;;;;7.23;5.50;;;22.40;1.00;;;;;;5084737;28;20409;-75
2022/08/15 07:19:38;;;;;;;6.93;5.40;;;22.50;1.00;;;;;;5082436;28;20478;-75
2022/08/15 07:22:05;;;;;;;8.43;5.47;;;22.40;1.00;;;;;;5085310;28;20444;-75
2022/08/15 07:24:32;;;;;;;7.30;5.60;;;22.30;1.00;;;;;;5088871;28;20457;-75
2022/08/15 07:27:13;;;;;;;7.60;5.90;;;22.30;1.00;;;;;;5082371;28;20532;-75
2022/08/15 07:29:43;;;;;;;7.67;6.03;;;22.20;1.00;;;;;;5085526;28;20426;-75
2022/08/15 07:32:20;;;;;;;7.70;6.07;;;22.00;1.00;;;;;;5083721;28;20445;-75
2022/08/15 07:35:06;;;;;;;6.40;5.70;;;22.10;1.00;;;;;;5092925;28;20603;-75
2022/08/15 07:37:35;;;;;;;8.30;5.80;;;22.30;1.00;;;;;;5086878;28;20441;-75
2022/08/15 07:40:06;;;;;;;7.43;6.00;;;22.30;1.00;;;;;;5078628;28;20444;-75
2022/08/15 07:42:39;;;;;;;10.30;6.00;;;22.20;1.00;;;;;;5086613;28;20881;-75
2022/08/15 07:45:10;;;;;;;11.40;6.17;;;22.30;1.00;;;;;;5083344;28;20988;-76
2022/08/15 07:47:36;;;;;;;7.90;6.70;;;22.20;1.00;;;;;;5079451;28;20488;-75
2022/08/15 07:50:07;;;;;;;8.40;6.30;;;22.20;1.00;;;;;;5077593;28;20428;-76
2022/08/15 07:52:33;;;;;;;9.23;6.13;;;22.40;1.00;;;;;;5076218;28;20215;-75
2022/08/15 07:55:16;;;;;;;8.50;6.67;;;22.30;1.00;;;;;;5080657;28;20472;-76
2022/08/15 07:58:05;;;;;;;7.27;6.40;;;22.70;1.00;;;;;;5077068;28;20179;-76
2022/08/15 08:00:34;;;;;;;11.20;6.63;;;22.80;1.00;;;;;;5081565;28;20524;-76
2022/08/15 08:03:10;;;;;;;6.90;6.00;;;23.30;1.00;;;;;;5080295;28;20998;-75
2022/08/15 08:06:12;;;;;;;7.40;5.83;;;23.70;1.00;;;;;;5091645;28;20501;-76
2022/08/15 08:08:52;;;;;;;8.27;6.03;;;24.10;1.00;;;;;;5079070;28;20409;-76
2022/08/15 08:11:39;;;;;;;6.67;5.10;;;24.40;1.00;;;;;;5086408;28;20429;-76
2022/08/15 08:14:18;;;;;;;7.97;5.83;;;24.70;1.00;;;;;;5078590;28;20435;-76
2022/08/15 08:16:54;;;;;;;7.97;5.70;;;24.90;1.00;;;;;;5088351;28;20467;-75
2022/08/15 08:19:37;;;;;;;7.40;5.83;;;24.90;1.00;;;;;;5086460;28;20429;-76
2022/08/15 08:22:06;;;;;;;8.03;5.03;;;24.80;1.00;;;;;;5081020;28;20559;-75
2022/08/15 08:24:40;;;;;;;6.67;5.10;;;25.00;1.00;;;;;;5083220;28;20487;-76
2022/08/15 08:27:30;;;;;;;9.33;4.83;;;25.20;1.00;;;;;;5082660;28;20444;-76
2022/08/15 08:30:07;;;;;;;6.30;4.60;;;26.40;1.00;;;;;;5091176;28;20431;-76
2022/08/15 08:33:09;;;;;;;9.13;4.80;;;28.00;1.00;;;;;;5085161;28;20452;-76
2022/08/15 08:35:54;;;;;;;7.80;4.93;;;28.40;1.00;;;;;;5087559;28;20183;-76
2022/08/15 08:38:52;;;;;;;5.30;4.47;;;27.70;1.00;;;;;;5086085;28;20202;-76
2022/08/15 08:41:35;;;;;;;6.80;4.67;;;27.50;1.00;;;;;;5067207;28;20650;-75
2022/08/15 08:44:18;;;;;;;7.27;4.27;;;27.20;1.00;;;;;;5087467;28;20199;-76
2022/08/15 08:47:01;;;;;;;6.10;4.40;;;27.10;1.00;;;;;;5079792;28;20602;-76
2022/08/15 08:49:37;;;;;;;10.43;4.70;;;27.50;1.00;;;;;;5089408;28;20249;-76
2022/08/15 08:52:27;;;;;;;10.47;4.50;;;27.20;1.00;;;;;;5086848;28;20209;-76
2022/08/15 08:55:16;;;;;;;6.77;4.70;;;26.90;1.00;;;;;;5082677;28;20289;-76
2022/08/15 08:57:48;;;;;;;8.90;4.53;;;26.50;1.00;;;;;;5088445;28;20182;-75
2022/08/15 09:00:23;;;;;;;7.47;4.17;;;26.50;1.00;;;;;;5087920;28;20215;-76
2022/08/15 09:02:57;;;;;;;5.40;4.10;;;26.30;1.00;;;;;;5090458;28;20436;-75
2022/08/15 09:05:36;;;;;;;5.83;4.50;;;26.20;1.00;;;;;;5088984;28;20673;-75
2022/08/15 09:08:08;;;;;;;8.67;5.90;;;26.10;1.00;;;;;;5086425;28;20951;-76
2022/08/15 09:10:35;;;;;;;6.73;4.07;;;26.00;1.00;;;;;;5082981;28;20414;-76
2022/08/15 09:15:53;;;;;;;6.07;4.20;;;25.80;1.00;;;;;;5086313;28;21064;-76
2022/08/15 09:18:29;;;;;;;5.40;4.40;;;25.90;1.00;;;;;;5094366;28;20520;-76
2022/08/15 09:20:56;;;;;;;13.00;4.20;;;25.70;1.00;;;;;;5085382;28;20491;-75
2022/08/15 09:23:23;;;;;;;6.20;4.27;;;25.50;1.00;;;;;;5085867;28;20530;-76
2022/08/15 09:26:13;;;;;;;5.57;4.03;;;25.50;1.00;;;;;;5086045;28;20544;-75
2022/08/15 09:28:43;;;;;;;6.77;4.67;;;26.10;1.00;;;;;;5097715;28;20507;-75
2022/08/15 09:31:20;;;;;;;5.90;4.20;;;26.80;1.00;;;;;;5085461;28;20430;-76
2022/08/15 09:34:09;;;;;;;5.50;4.13;;;28.70;1.00;;;;;;5084467;28;20191;-77
2022/08/15 09:36:56;;;;;;;7.17;4.30;;;29.20;1.00;;;;;;5092689;28;20511;-76
2022/08/15 09:40:06;;;;;;;5.47;4.00;;;28.80;1.00;;;;;;5086552;28;20515;-76
2022/08/15 09:42:55;;;;;;;6.07;3.97;;;28.10;1.00;;;;;;5090134;28;20191;-76
2022/08/15 09:45:32;;;;;;;5.00;4.00;;;27.70;1.00;;;;;;5086549;28;20676;-76
2022/08/15 09:48:38;;;;;;;5.57;4.20;;;27.50;1.00;;;;;;5090076;28;20181;-75
2022/08/15 09:51:43;;;;;;;6.00;4.10;;;26.80;1.00;;;;;;5079248;28;20187;-75
2022/08/15 09:54:16;;;;;;;8.13;4.63;;;26.90;1.00;;;;;;5081994;28;20307;-76
2022/08/15 09:56:43;;;;;;;6.67;3.90;;;27.00;1.00;;;;;;5088368;28;20171;-76
2022/08/15 09:59:20;;;;;;;6.63;3.90;;;28.10;1.00;;;;;;5090912;28;20194;-76
2022/08/15 10:01:58;;;;;;;4.80;4.10;;;27.90;1.00;;;;;;5083472;28;20507;-75
2022/08/15 10:05:00;;;;;;;8.23;4.27;;;28.50;1.00;;;;;;5087017;28;20205;-76
2022/08/15 10:07:42;;;;;;;6.37;3.90;;;28.90;1.00;;;;;;5095037;28;20684;-76
2022/08/15 10:10:31;;;;;;;4.60;3.70;;;29.10;1.00;;;;;;5084088;28;20541;-76
2022/08/15 10:13:28;;;;;;;5.07;4.30;;;29.10;1.00;;;;;;5077007;28;20217;-76
2022/08/15 10:15:55;;;;;;;6.57;4.40;;;28.60;1.00;;;;;;5084053;28;20229;-76
2022/08/15 10:18:23;;;;;;;5.83;4.17;;;29.10;1.00;;;;;;5079270;28;20632;-76
2022/08/15 10:20:54;;;;;;;5.75;3.70;;;29.80;1.00;;;;;;5085713;28;20752;-76
2022/08/15 10:23:30;;;;;;;7.97;3.92;;;30.30;1.00;;;;;;5085326;28;20203;-74
2022/08/15 10:26:13;;;;;;;6.22;3.40;;;31.90;1.00;;;;;;5092445;28;20769;-75
2022/08/15 10:28:40;;;;;;;3.88;3.47;;;32.10;1.00;;;;;;5100885;28;20309;-76
2022/08/15 10:31:08;;;;;;;5.55;3.70;;;32.00;1.00;;;;;;5079604;28;20174;-77
2022/08/15 10:33:42;;;;;;;5.88;3.75;;;32.70;1.00;;;;;;5088447;28;20728;-77
2022/08/15 10:36:14;;;;;;;4.32;3.28;;;33.30;1.00;;;;;;5095683;28;20171;-77
2022/08/15 10:39:12;;;;;;;5.57;3.42;;;33.70;1.00;;;;;;5092299;28;20182;-76
2022/08/15 10:42:15;;;;;;;4.25;3.40;;;33.80;1.00;;;;;;5089323;28;20172;-77
2022/08/15 10:45:11;;;;;;;4.05;3.28;;;35.00;1.00;;;;;;5082021;28;20240;-77
2022/08/15 10:48:08;;;;;;;3.80;3.17;;;36.70;1.00;;;;;;5086401;28;20206;-77
2022/08/15 10:50:57;;;;;;;5.82;3.50;;;36.80;1.00;;;;;;5092057;28;20750;-77
2022/08/15 10:53:47;;;;;;;3.63;3.28;;;34.90;1.00;;;;;;5076704;28;20199;-76
2022/08/15 10:56:18;;;;;;;5.38;3.72;;;33.60;1.00;;;;;;5078165;28;20207;-77
2022/08/15 10:58:45;;;;;;;5.80;3.20;;;34.80;1.00;;;;;;5082584;28;20251;-77
2022/08/15 11:01:23;;;;;;;4.05;3.20;;;36.40;1.00;;;;;;5083541;28;20209;-77
2022/08/15 11:04:01;;;;;;;4.72;3.30;;;36.60;1.00;;;;;;5084040;28;20193;-77
2022/08/15 11:06:27;;;;;;;3.90;3.05;;;37.30;1.00;;;;;;5078191;28;20182;-78
2022/08/15 11:08:53;;;;;;;5.05;3.28;;;38.30;1.00;;;;;;5093055;28;20171;-77
2022/08/15 11:11:22;;;;;;;5.18;3.20;;;39.40;1.00;;;;;;5095327;28;20180;-77
2022/08/15 11:13:58;;;;;;;3.97;3.20;;;39.80;1.00;;;;;;5088758;28;20191;-77
2022/08/15 11:16:38;;;;;;;5.30;3.25;;;39.60;1.00;;;;;;5082875;28;20605;-77
2022/08/15 11:19:23;;;;;;;3.72;3.22;;;38.50;1.00;;;;;;5089359;28;20176;-77
2022/08/15 11:21:55;;;;;;;3.90;3.40;;;36.70;1.00;;;;;;5086271;28;20557;-77
2022/08/15 11:24:59;;;;;;;5.93;3.58;;;35.50;1.00;;;;;;5082980;28;20345;-76
2022/08/15 11:27:26;;;;;;;4.68;3.30;;;35.00;1.00;;;;;;5086542;28;20190;-76
2022/08/15 11:29:56;;;;;;;4.88;3.50;;;35.90;1.00;;;;;;5088596;28;20232;-76
2022/08/15 11:32:34;;;;;;;4.72;3.55;;;36.60;1.00;;;;;;5086159;28;20704;-76
2022/08/15 11:35:02;;;;;;;4.53;3.50;;;37.60;1.00;;;;;;5090672;28;20561;-77
2022/08/15 11:37:46;;;;;;;7.47;3.38;;;38.60;1.00;;;;;;5086633;28;20183;-77
2022/08/15 11:40:33;;;;;;;4.88;3.20;;;38.80;1.00;;;;;;5083030;28;20178;-77
2022/08/15 11:43:01;;;;;;;4.65;3.03;;;38.70;1.00;;;;;;5086430;28;20731;-77
2022/08/15 11:45:33;;;;;;;3.95;3.03;;;39.50;1.00;;;;;;5087151;28;20202;-77
2022/08/15 11:48:00;;;;;;;5.25;3.38;;;40.20;1.00;;;;;;5088360;28;20541;-77
2022/08/15 11:50:35;;;;;;;3.38;3.08;;;40.30;1.00;;;;;;5085380;28;20534;-77
2022/08/15 11:53:04;;;;;;;5.50;3.47;;;38.80;1.00;;;;;;5083069;28;20346;-78
2022/08/15 11:55:30;;;;;;;3.50;3.03;;;38.00;1.00;;;;;;5090669;28;20299;-78
2022/08/15 11:58:20;;;;;;;3.30;2.88;;;39.00;1.00;;;;;;5086926;28;20583;-77
2022/08/15 12:00:49;;;;;;;5.38;3.60;;;40.90;1.00;;;;;;5081772;28;20697;-77
2022/08/15 12:03:27;;;;;;;4.93;3.22;;;41.10;1.00;;;;;;5084031;28;20199;-77
2022/08/15 12:05:56;;;;;;;7.40;3.40;;;40.80;1.00;;;;;;5081210;28;20685;-77
2022/08/15 12:08:28;;;;;;;4.80;3.05;;;41.40;1.00;;;;;;5090689;28;20167;-77
2022/08/15 12:11:14;;;;;;;3.40;2.97;;;42.10;1.00;;;;;;5089288;28;20676;-77
2022/08/15 12:13:56;;;;;;;4.53;2.95;;;40.40;1.00;;;;;;5085279;28;20207;-77
2022/08/15 12:16:43;;;;;;;4.95;3.03;;;39.80;1.00;;;;;;5084621;28;20656;-77
2022/08/15 12:19:35;;;;;;;4.65;3.70;;;41.10;1.00;;;;;;5091693;28;20623;-77
2022/08/15 12:22:24;;;;;;;5.03;3.00;;;41.00;1.00;;;;;;5087102;28;20669;-77
2022/08/15 12:24:50;;;;;;;5.50;3.63;;;41.20;1.00;;;;;;5079353;28;20199;-78
2022/08/15 12:27:15;;;;;;;3.80;2.80;;;41.00;1.00;;;;;;5091286;28;20201;-77
2022/08/15 12:29:42;;;;;;;3.78;3.08;;;41.80;1.00;;;;;;5087964;28;20241;-77
2022/08/15 12:32:10;;;;;;;3.97;3.10;;;42.10;1.00;;;;;;5091029;28;20672;-77
2022/08/15 12:34:48;;;;;;;5.20;3.38;;;40.60;1.00;;;;;;5083706;28;20218;-77
2022/08/15 12:37:18;;;;;;;6.47;3.20;;;38.80;1.00;;;;;;5090527;28;20261;-77
2022/08/15 12:39:49;;;;;;;4.07;3.67;;;36.50;1.00;;;;;;5085235;28;20191;-77
2022/08/15 12:42:20;;;;;;;4.57;3.40;;;35.00;1.00;;;;;;5083935;28;20217;-77
2022/08/15 12:44:48;;;;;;;5.25;3.65;;;34.40;1.00;;;;;;5089366;28;20203;-76
2022/08/15 12:47:13;;;;;;;6.30;3.42;;;36.00;1.00;;;;;;5073262;28;20167;-77
2022/08/15 12:49:39;;;;;;;4.30;3.33;;;38.30;1.00;;;;;;5082124;28;20247;-77
2022/08/15 12:52:04;;;;;;;4.68;3.72;;;39.90;1.00;;;;;;5087090;28;20187;-77
2022/08/15 12:54:30;;;;;;;4.88;3.88;;;40.40;1.00;;;;;;5089002;28;20572;-77
2022/08/15 12:56:57;;;;;;;4.22;3.10;;;39.80;1.00;;;;;;5087228;28;20186;-77
2022/08/15 12:59:22;;;;;;;5.78;3.80;;;39.20;1.00;;;;;;5087652;28;20179;-77
2022/08/15 13:01:48;;;;;;;5.97;3.50;;;38.20;1.00;;;;;;5083752;28;20240;-77
2022/08/15 13:04:14;;;;;;;7.65;3.38;;;38.20;1.00;;;;;;5083858;28;20669;-77
2022/08/15 13:06:50;;;;;;;4.38;3.38;;;38.30;1.00;;;;;;5079477;28;20254;-77
2022/08/15 13:09:18;;;;;;;6.07;3.22;;;39.80;1.00;;;;;;5088781;28;20205;-77
2022/08/15 13:11:46;;;;;;;3.67;3.10;;;41.30;1.00;;;;;;5089066;28;20171;-77
2022/08/15 13:14:14;;;;;;;3.75;2.95;;;42.80;1.00;;;;;;5089687;28;20190;-77
2022/08/15 13:16:40;;;;;;;3.55;3.20;;;42.70;1.00;;;;;;5086858;28;20179;-77
2022/08/15 13:19:10;;;;;;;6.97;3.40;;;43.50;1.00;;;;;;5079604;28;20180;-77
2022/08/15 13:24:20;;;;;;;5.25;3.20;;;45.10;1.00;;;;;;5085072;28;20551;-77
2022/08/15 13:26:46;;;;;;;3.90;3.00;;;45.20;1.00;;;;;;5083274;28;20722;-77
2022/08/15 13:29:15;;;;;;;4.03;3.20;;;45.10;1.00;;;;;;5100991;28;20175;-77
2022/08/15 13:31:41;;;;;;;4.10;3.10;;;44.60;1.00;;;;;;5085794;28;20697;-77
2022/08/15 13:34:06;;;;;;;4.68;3.30;;;42.90;1.00;;;;;;5084130;28;20168;-77
2022/08/15 13:36:33;;;;;;;6.00;3.35;;;41.70;1.00;;;;;;5080798;28;20183;-77